createdAt,value
2022-11-23T00:01:25.724Z,9.50
2022-11-23T00:03:28.348Z,11.43
2022-11-23T00:05:31.450Z,12.57
2022-11-23T00:07:34.162Z,12.20
2022-11-23T00:09:36.832Z,11.48
2022-11-23T00:11:39.551Z,13.30
2022-11-23T00:13:42.457Z,14.02
2022-11-23T00:15:44.975Z,11.57
2022-11-23T00:17:48.634Z,8.30
2022-11-23T00:19:51.129Z,11.68
2022-11-23T00:21:53.740Z,13.27
2022-11-23T00:23:56.837Z,14.50
2022-11-23T00:25:59.385Z,11.75
2022-11-23T00:28:02.645Z,10.90
2022-11-23T00:30:05.793Z,12.80
2022-11-23T00:32:08.532Z,7.22
2022-11-23T00:34:11.188Z,8.40
2022-11-23T00:36:15.609Z,17.15
2022-11-23T00:38:18.351Z,8.68
2022-11-23T00:40:21.026Z,13.45
2022-11-23T00:42:23.658Z,9.05
2022-11-23T00:44:26.258Z,9.32
2022-11-23T00:46:29.181Z,8.43
2022-11-23T00:48:32.356Z,10.07
2022-11-23T00:50:35.147Z,12.10
2022-11-23T00:52:37.789Z,11.90
2022-11-23T00:54:40.530Z,10.45
2022-11-23T00:56:43.152Z,10.50
2022-11-23T00:58:53.047Z,12.15
2022-11-23T01:01:10.755Z,10.57
2022-11-23T01:03:13.918Z,6.88
2022-11-23T01:05:16.596Z,8.85
2022-11-23T01:07:19.285Z,10.85
2022-11-23T01:09:25.293Z,7.95
2022-11-23T01:11:30.139Z,15.45
2022-11-23T01:13:32.922Z,12.70
2022-11-23T01:15:35.598Z,7.38
2022-11-23T01:17:38.199Z,10.40
2022-11-23T01:19:40.850Z,9.88
2022-11-23T01:21:43.911Z,10.13
2022-11-23T01:23:46.455Z,8.97
2022-11-23T01:25:51.904Z,8.30
2022-11-23T01:27:56.966Z,13.55
2022-11-23T01:29:59.506Z,11.73
2022-11-23T01:32:02.316Z,11.85
2022-11-23T01:34:05.194Z,10.23
2022-11-23T01:36:18.466Z,10.32
2022-11-23T01:38:21.081Z,8.25
2022-11-23T01:40:23.710Z,12.30
2022-11-23T01:42:56.841Z,12.57
2022-11-23T01:45:37.875Z,11.80
2022-11-23T01:47:40.460Z,13.75
2022-11-23T01:49:48.675Z,14.00
2022-11-23T01:51:54.946Z,13.55
2022-11-23T01:54:16.718Z,14.65
2022-11-23T01:56:25.848Z,7.05
2022-11-23T01:58:32.091Z,10.77
2022-11-23T02:00:34.706Z,9.40
2022-11-23T02:02:41.144Z,9.75
2022-11-23T02:04:48.221Z,14.98
2022-11-23T02:06:51.363Z,9.87
2022-11-23T02:08:54.407Z,12.53
2022-11-23T02:10:58.353Z,10.83
2022-11-23T02:13:06.950Z,10.15
2022-11-23T02:15:29.637Z,12.23
2022-11-23T02:17:34.520Z,9.03
2022-11-23T02:20:06.415Z,9.77
2022-11-23T02:22:17.399Z,13.85
2022-11-23T02:24:45.511Z,13.73
2022-11-23T02:26:48.332Z,12.85
2022-11-23T02:28:59.608Z,10.02
2022-11-23T02:33:23.531Z,9.93
2022-11-23T02:35:26.286Z,7.65
2022-11-23T02:37:29.073Z,10.87
2022-11-23T02:39:37.156Z,10.10
2022-11-23T02:41:44.249Z,10.82
2022-11-23T02:43:52.998Z,11.50
2022-11-23T02:46:02.090Z,12.05
2022-11-23T02:50:24.999Z,7.82
2022-11-23T02:52:27.544Z,46.60
2022-11-23T02:54:30.154Z,10.33
2022-11-23T02:56:33.120Z,12.53
2022-11-23T02:58:35.771Z,10.37
2022-11-23T03:00:38.699Z,15.68
2022-11-23T03:02:41.631Z,10.75
2022-11-23T03:04:44.192Z,12.93
2022-11-23T03:06:46.884Z,10.87
2022-11-23T03:08:49.562Z,9.07
2022-11-23T03:10:52.114Z,8.87
2022-11-23T03:12:56.677Z,19.57
2022-11-23T03:14:59.320Z,8.70
2022-11-23T03:17:01.959Z,9.85
2022-11-23T03:19:04.795Z,8.83
2022-11-23T03:21:10.588Z,8.43
2022-11-23T03:23:13.133Z,8.60
2022-11-23T03:25:15.888Z,14.40
2022-11-23T03:27:18.895Z,15.20
2022-11-23T03:29:25.655Z,21.83
2022-11-23T03:31:28.233Z,11.43
2022-11-23T03:33:30.863Z,32.90
2022-11-23T03:35:33.468Z,40.03
2022-11-23T03:37:36.090Z,9.70
2022-11-23T03:39:42.896Z,9.80
2022-11-23T03:41:48.452Z,7.32
2022-11-23T03:43:51.028Z,10.85
2022-11-23T03:45:53.649Z,8.68
2022-11-23T03:47:56.322Z,8.95
2022-11-23T03:50:00.341Z,8.23
2022-11-23T03:52:02.982Z,17.55
2022-11-23T03:54:05.702Z,8.98
2022-11-23T03:56:09.077Z,8.75
2022-11-23T03:58:11.789Z,10.45
2022-11-23T04:00:15.327Z,25.88
2022-11-23T04:02:17.930Z,9.40
2022-11-23T04:04:21.301Z,9.18
2022-11-23T04:06:23.862Z,9.13
2022-11-23T04:08:26.831Z,8.45
2022-11-23T04:10:29.397Z,36.90
2022-11-23T04:12:32.013Z,9.15
2022-11-23T04:14:34.612Z,10.38
2022-11-23T04:16:37.230Z,9.52
2022-11-23T04:18:40.795Z,7.82
2022-11-23T04:20:43.477Z,9.35
2022-11-23T04:22:46.090Z,9.85
2022-11-23T04:24:48.723Z,8.93
2022-11-23T04:26:51.384Z,6.25
2022-11-23T04:28:53.975Z,28.08
2022-11-23T04:30:58.969Z,6.90
2022-11-23T04:33:01.617Z,9.15
2022-11-23T04:35:04.612Z,7.15
2022-11-23T04:37:12.890Z,8.30
2022-11-23T04:39:15.970Z,8.63
2022-11-23T04:41:18.764Z,6.10
2022-11-23T04:43:21.368Z,13.48
2022-11-23T04:45:24.097Z,13.85
2022-11-23T04:47:26.938Z,8.20
2022-11-23T04:49:29.771Z,6.95
2022-11-23T04:51:32.918Z,7.20
2022-11-23T04:53:35.646Z,6.35
2022-11-23T04:55:38.371Z,20.90
2022-11-23T04:57:41.102Z,10.43
2022-11-23T04:59:43.772Z,10.30
2022-11-23T05:01:46.519Z,6.05
2022-11-23T05:03:49.109Z,13.52
2022-11-23T05:05:51.800Z,6.38
2022-11-23T05:07:55.154Z,60.10
2022-11-23T05:09:57.925Z,8.20
2022-11-23T05:12:00.688Z,8.43
2022-11-23T05:14:03.720Z,7.57
2022-11-23T05:16:07.274Z,9.05
2022-11-23T05:18:12.002Z,6.35
2022-11-23T05:20:14.722Z,9.40
2022-11-23T05:22:17.321Z,6.35
2022-11-23T05:24:20.046Z,6.63
2022-11-23T05:26:22.902Z,33.95
2022-11-23T05:28:41.618Z,8.63
2022-11-23T05:30:45.043Z,8.00
2022-11-23T05:32:48.313Z,7.03
2022-11-23T05:34:51.241Z,5.75
2022-11-23T05:36:53.884Z,8.75
2022-11-23T05:38:56.676Z,10.13
2022-11-23T05:40:59.605Z,9.00
2022-11-23T05:43:02.655Z,19.77
2022-11-23T05:45:11.298Z,7.53
2022-11-23T05:47:15.181Z,6.25
2022-11-23T05:49:18.521Z,6.78
2022-11-23T05:51:22.156Z,11.63
2022-11-23T05:53:25.189Z,9.43
2022-11-23T05:55:28.655Z,9.00
2022-11-23T05:57:31.384Z,9.85
2022-11-23T05:59:34.467Z,41.65
2022-11-23T06:01:37.356Z,10.63
2022-11-23T06:03:40.366Z,8.32
2022-11-23T06:05:43.222Z,18.00
2022-11-23T06:07:46.073Z,9.00
2022-11-23T06:09:48.811Z,6.82
2022-11-23T06:11:51.425Z,6.13
2022-11-23T06:13:54.035Z,9.70
2022-11-23T06:15:57.690Z,7.63
2022-11-23T06:18:04.155Z,15.05
2022-11-23T06:20:07.383Z,10.93
2022-11-23T06:22:10.081Z,6.80
2022-11-23T06:24:12.709Z,6.40
2022-11-23T06:26:16.320Z,9.75
2022-11-23T06:28:19.114Z,7.75
2022-11-23T06:30:21.924Z,7.75
2022-11-23T06:32:24.569Z,9.77
2022-11-23T06:34:27.272Z,58.83
2022-11-23T06:36:30.000Z,7.78
2022-11-23T06:38:32.589Z,7.90
2022-11-23T06:40:35.192Z,7.03
2022-11-23T06:42:39.676Z,5.47
2022-11-23T06:44:42.721Z,7.38
2022-11-23T06:46:45.361Z,7.78
2022-11-23T06:48:48.292Z,7.72
2022-11-23T06:50:51.299Z,7.85
2022-11-23T06:52:58.325Z,6.82
2022-11-23T06:55:01.187Z,6.25
2022-11-23T06:57:09.595Z,4.57
2022-11-23T06:59:12.251Z,7.80
2022-11-23T07:01:14.954Z,8.60
2022-11-23T07:03:23.576Z,7.22
2022-11-23T07:05:26.554Z,6.07
2022-11-23T07:07:29.255Z,5.70
2022-11-23T07:09:32.132Z,7.85
2022-11-23T07:11:35.571Z,8.48
2022-11-23T07:13:38.888Z,8.77
2022-11-23T07:15:42.646Z,3.75
2022-11-23T07:17:45.468Z,7.57
2022-11-23T07:19:48.582Z,5.53
2022-11-23T07:21:52.299Z,5.43
2022-11-23T07:23:54.980Z,5.00
2022-11-23T07:25:57.628Z,4.93
2022-11-23T07:28:01.643Z,12.95
2022-11-23T07:30:05.048Z,3.63
2022-11-23T07:32:08.897Z,5.18
2022-11-23T07:34:11.610Z,5.68
2022-11-23T07:36:14.859Z,6.13
2022-11-23T07:38:18.067Z,19.95
2022-11-23T07:40:21.105Z,6.82
2022-11-23T07:42:44.681Z,8.15
2022-11-23T07:44:46.226Z,4.22
2022-11-23T07:46:55.774Z,8.05
2022-11-23T07:49:02.389Z,5.05
2022-11-23T07:51:05.103Z,7.68
2022-11-23T07:53:08.802Z,4.85
2022-11-23T07:55:11.567Z,30.73
2022-11-23T07:57:15.325Z,5.25
2022-11-23T07:59:17.908Z,16.17
2022-11-23T08:01:20.974Z,5.00
2022-11-23T08:03:28.642Z,21.65
2022-11-23T08:05:33.470Z,5.10
2022-11-23T08:07:36.165Z,7.63
2022-11-23T08:09:39.113Z,4.10
2022-11-23T08:11:41.871Z,3.78
2022-11-23T08:13:45.255Z,3.03
2022-11-23T08:15:53.834Z,4.25
2022-11-23T08:17:59.113Z,5.75
2022-11-23T08:20:01.849Z,5.05
2022-11-23T08:22:06.005Z,5.22
2022-11-23T08:24:08.802Z,6.80
2022-11-23T08:26:13.773Z,27.63
2022-11-23T08:28:16.736Z,7.07
2022-11-23T08:30:19.454Z,10.10
2022-11-23T08:32:22.130Z,4.80
2022-11-23T08:34:24.805Z,9.43
2022-11-23T08:36:27.402Z,4.13
2022-11-23T08:38:30.046Z,3.55
2022-11-23T08:40:33.637Z,9.70
2022-11-23T08:42:36.299Z,5.90
2022-11-23T08:44:39.209Z,5.25
2022-11-23T08:46:42.034Z,4.70
2022-11-23T08:48:45.322Z,5.63
2022-11-23T08:50:48.515Z,6.10
2022-11-23T08:52:58.847Z,7.80
2022-11-23T08:55:01.855Z,4.25
2022-11-23T08:57:06.018Z,7.05
2022-11-23T08:59:09.506Z,6.20
2022-11-23T09:01:15.031Z,7.70
2022-11-23T09:03:17.627Z,4.90
2022-11-23T09:05:20.386Z,5.78
2022-11-23T09:07:23.108Z,5.47
2022-11-23T09:09:25.741Z,44.45
2022-11-23T09:11:28.491Z,27.63
2022-11-23T09:13:31.733Z,8.20
2022-11-23T09:15:34.921Z,10.57
2022-11-23T09:17:37.656Z,5.30
2022-11-23T09:19:40.279Z,106.28
2022-11-23T09:21:43.437Z,5.75
2022-11-23T09:23:46.205Z,6.78
2022-11-23T09:25:50.287Z,4.63
2022-11-23T09:27:59.918Z,9.18
2022-11-23T09:30:02.971Z,25.40
2022-11-23T09:32:06.789Z,5.47
2022-11-23T09:34:13.461Z,5.05
2022-11-23T09:36:16.229Z,6.35
2022-11-23T09:38:18.856Z,72.63
2022-11-23T09:40:21.941Z,6.45
2022-11-23T09:42:36.666Z,5.72
2022-11-23T09:45:01.397Z,6.63
2022-11-23T09:47:28.372Z,10.00
2022-11-23T09:49:43.224Z,5.43
2022-11-23T09:51:47.272Z,15.43
2022-11-23T09:53:53.155Z,6.00
2022-11-23T09:55:58.048Z,10.50
2022-11-23T09:58:05.317Z,7.70
2022-11-23T10:03:19.117Z,6.70
2022-11-23T10:05:26.343Z,4.72
2022-11-23T10:07:42.464Z,43.70
2022-11-23T10:10:01.356Z,6.88
2022-11-23T10:12:31.897Z,3.70
2022-11-23T10:14:59.753Z,3.88
2022-11-23T10:17:26.043Z,42.15
2022-11-23T10:19:53.263Z,5.07
2022-11-23T10:22:16.737Z,5.70
2022-11-23T10:24:31.532Z,20.58
2022-11-23T10:26:41.739Z,5.03
2022-11-23T10:28:46.921Z,6.22
2022-11-23T10:30:57.574Z,4.18
2022-11-23T10:33:21.936Z,5.10
2022-11-23T10:35:32.378Z,6.53
2022-11-23T10:37:35.347Z,3.90
2022-11-23T10:39:38.449Z,4.25
2022-11-23T10:41:41.019Z,4.22
2022-11-23T10:44:09.417Z,4.85
2022-11-23T10:46:25.955Z,4.57
2022-11-23T10:48:35.999Z,4.90
2022-11-23T10:50:44.941Z,4.13
2022-11-23T10:53:00.626Z,5.18
2022-11-23T10:55:06.932Z,4.97
2022-11-23T10:57:27.920Z,4.55
2022-11-23T10:59:35.756Z,6.53
2022-11-23T11:01:38.461Z,8.55
2022-11-23T11:03:41.623Z,4.63
2022-11-23T11:06:08.541Z,3.78
2022-11-23T11:08:18.248Z,6.78
2022-11-23T11:10:37.211Z,7.25
2022-11-23T11:12:51.502Z,3.90
2022-11-23T11:15:05.246Z,6.75
2022-11-23T11:17:26.865Z,6.72
2022-11-23T11:19:36.392Z,6.53
2022-11-23T11:21:42.241Z,6.00
2022-11-23T11:23:52.805Z,7.60
2022-11-23T11:26:21.550Z,5.72
2022-11-23T11:28:43.719Z,5.18
2022-11-23T11:31:11.498Z,4.95
2022-11-23T11:33:37.443Z,50.80
2022-11-23T11:35:43.800Z,4.78
2022-11-23T11:37:52.019Z,23.48
2022-11-23T11:40:07.975Z,3.85
2022-11-23T11:42:20.129Z,5.47
2022-11-23T11:44:26.332Z,5.18
2022-11-23T11:46:38.393Z,133.95
2022-11-23T11:48:50.713Z,8.45
2022-11-23T11:50:59.441Z,98.85
2022-11-23T11:53:11.935Z,3.97
2022-11-23T11:55:25.065Z,14.23
2022-11-23T11:57:44.488Z,5.93
2022-11-23T11:59:57.891Z,39.75
2022-11-23T12:02:27.166Z,9.90
2022-11-23T12:04:39.657Z,4.28
2022-11-23T12:06:52.114Z,4.38
2022-11-23T12:09:07.296Z,4.85
2022-11-23T12:11:12.302Z,3.90
2022-11-23T12:13:24.895Z,22.60
2022-11-23T12:16:12.451Z,4.10
2022-11-23T12:18:40.418Z,22.98
2022-11-23T12:21:05.457Z,3.15
2022-11-23T12:23:17.276Z,3.97
2022-11-23T12:26:02.837Z,32.42
2022-11-23T12:28:11.441Z,2.85
2022-11-23T12:30:37.104Z,13.70
2022-11-23T12:33:05.461Z,2.10
2022-11-23T12:35:45.558Z,10.45
2022-11-23T12:38:24.214Z,3.25
2022-11-23T12:40:46.568Z,3.75
2022-11-23T12:42:58.686Z,7.15
2022-11-23T12:45:01.269Z,4.13
2022-11-23T12:47:18.296Z,15.70
2022-11-23T12:49:42.244Z,4.18
2022-11-23T12:52:18.076Z,15.52
2022-11-23T12:54:23.616Z,6.78
2022-11-23T12:56:29.313Z,10.45
2022-11-23T12:58:34.781Z,3.60
2022-11-23T13:00:44.356Z,4.43
2022-11-23T13:03:01.940Z,3.58
2022-11-23T13:05:33.534Z,27.63
2022-11-23T13:08:02.485Z,2.40
2022-11-23T13:10:25.809Z,2.60
2022-11-23T13:13:09.838Z,2.72
2022-11-23T13:15:44.291Z,6.05
2022-11-23T13:18:03.805Z,7.97
2022-11-23T13:20:18.010Z,5.18
2022-11-23T13:22:23.144Z,7.60
2022-11-23T13:24:39.019Z,17.65
2022-11-23T13:26:41.955Z,12.52
2022-11-23T13:28:47.192Z,3.08
2022-11-23T13:31:16.175Z,2.78
2022-11-23T13:33:23.809Z,1.55
2022-11-23T13:35:29.773Z,5.57
2022-11-23T13:37:58.326Z,2.10
2022-11-23T13:40:03.901Z,4.57
2022-11-23T13:42:11.118Z,1.83
2022-11-23T13:44:23.364Z,3.17
2022-11-23T13:46:29.160Z,4.07
2022-11-23T13:48:55.378Z,3.05
2022-11-23T13:50:54.530Z,3.28
2022-11-23T13:52:57.706Z,11.02
2022-11-23T13:55:12.587Z,2.38
2022-11-23T13:57:17.022Z,2.95
2022-11-23T13:59:25.502Z,2.17
2022-11-23T14:02:06.087Z,3.58
2022-11-23T14:04:23.775Z,3.33
2022-11-23T14:06:38.416Z,10.95
2022-11-23T14:08:42.196Z,2.97
2022-11-23T14:10:45.409Z,8.15
2022-11-23T14:12:48.005Z,2.67
2022-11-23T14:14:59.253Z,4.43
2022-11-23T14:17:29.073Z,4.38
2022-11-23T14:19:40.894Z,3.40
2022-11-23T14:22:06.281Z,2.50
2022-11-23T14:24:17.755Z,4.78
2022-11-23T14:26:35.619Z,4.03
2022-11-23T14:29:15.127Z,5.57
2022-11-23T14:31:55.228Z,3.25
2022-11-23T14:34:28.580Z,4.30
2022-11-23T14:36:39.975Z,9.93
2022-11-23T14:39:27.122Z,4.70
2022-11-23T14:41:36.405Z,5.03
2022-11-23T14:43:43.175Z,8.45
2022-11-23T14:45:47.585Z,3.63
2022-11-23T14:47:50.364Z,3.03
2022-11-23T14:49:53.189Z,22.85
2022-11-23T14:51:56.601Z,4.60
2022-11-23T14:54:08.531Z,5.25
2022-11-23T14:58:28.766Z,13.95
2022-11-23T15:00:41.779Z,6.15
2022-11-23T15:02:44.926Z,18.90
2022-11-23T15:05:11.760Z,4.45
2022-11-23T15:07:25.309Z,5.90
2022-11-23T15:09:46.293Z,4.75
2022-11-23T15:11:49.413Z,20.77
2022-11-23T15:13:55.432Z,8.82
2022-11-23T15:15:58.761Z,8.52
2022-11-23T15:18:02.964Z,6.72
2022-11-23T15:20:06.030Z,6.60
2022-11-23T15:22:20.194Z,9.98
2022-11-23T15:24:26.209Z,118.53
2022-11-23T15:28:54.014Z,6.75
2022-11-23T15:30:58.485Z,9.43
2022-11-23T15:33:09.233Z,7.85
2022-11-23T15:35:15.892Z,7.50
2022-11-23T15:37:19.226Z,6.57
2022-11-23T15:39:24.272Z,8.90
2022-11-23T15:41:29.819Z,8.52
2022-11-23T15:43:32.451Z,4.70
2022-11-23T15:45:47.018Z,6.30
2022-11-23T15:47:49.732Z,6.40
2022-11-23T15:49:59.530Z,3.97
2022-11-23T15:52:02.914Z,4.63
2022-11-23T15:54:12.205Z,5.72
2022-11-23T15:56:28.628Z,42.70
2022-11-23T15:58:33.061Z,4.38
2022-11-23T16:00:36.659Z,74.50
2022-11-23T16:02:39.412Z,5.97
2022-11-23T16:04:44.214Z,8.05
2022-11-23T16:06:49.655Z,3.95
2022-11-23T16:08:52.521Z,5.22
2022-11-23T16:10:55.763Z,5.47
2022-11-23T16:13:00.767Z,7.22
2022-11-23T16:15:44.585Z,113.43
2022-11-23T16:17:47.279Z,4.03
2022-11-23T16:20:02.696Z,5.50
2022-11-23T16:22:07.919Z,7.25
2022-11-23T16:24:20.632Z,5.55
2022-11-23T16:26:32.088Z,4.55
2022-11-23T16:28:38.337Z,5.25
2022-11-23T16:30:43.669Z,11.50
2022-11-23T16:32:46.375Z,7.03
2022-11-23T16:34:49.034Z,10.02
2022-11-23T16:36:53.282Z,13.32
2022-11-23T16:38:59.624Z,21.42
2022-11-23T16:41:05.198Z,5.75
2022-11-23T16:43:09.328Z,8.80
2022-11-23T16:45:12.035Z,6.13
2022-11-23T16:47:22.473Z,4.90
2022-11-23T16:49:25.156Z,6.70
2022-11-23T16:51:28.621Z,18.58
2022-11-23T16:53:47.162Z,5.80
2022-11-23T16:55:56.000Z,5.22
2022-11-23T16:57:58.621Z,6.43
2022-11-23T17:00:07.558Z,5.68
2022-11-23T17:02:14.749Z,5.57
2022-11-23T17:04:17.502Z,8.48
2022-11-23T17:06:23.573Z,4.65
2022-11-23T17:08:26.254Z,8.88
2022-11-23T17:10:28.939Z,6.25
2022-11-23T17:12:31.605Z,4.93
2022-11-23T17:14:39.252Z,5.97
2022-11-23T17:16:42.628Z,7.43
2022-11-23T17:18:45.644Z,6.32
2022-11-23T17:20:48.664Z,6.57
2022-11-23T17:22:52.145Z,6.68
2022-11-23T17:24:54.983Z,4.88
2022-11-23T17:26:57.766Z,5.50
2022-11-23T17:29:02.478Z,6.13
2022-11-23T17:31:05.404Z,27.02
2022-11-23T17:33:11.477Z,5.85
2022-11-23T17:35:14.346Z,19.13
2022-11-23T17:37:22.701Z,7.93
2022-11-23T17:39:26.268Z,12.20
2022-11-23T17:41:28.940Z,7.13
2022-11-23T17:43:31.703Z,26.70
2022-11-23T17:45:34.603Z,5.43
2022-11-23T17:47:38.427Z,25.42
2022-11-23T17:49:41.039Z,5.10
2022-11-23T17:51:43.943Z,9.13
2022-11-23T17:53:47.897Z,9.68
2022-11-23T17:55:50.897Z,5.00
2022-11-23T17:57:54.148Z,7.82
2022-11-23T18:00:01.993Z,7.10
2022-11-23T18:02:07.255Z,8.50
2022-11-23T18:04:10.299Z,8.10
2022-11-23T18:06:20.134Z,24.45
2022-11-23T18:08:22.905Z,7.70
2022-11-23T18:10:25.865Z,29.50
2022-11-23T18:12:28.469Z,8.30
2022-11-23T18:14:31.076Z,33.60
2022-11-23T18:16:33.737Z,8.15
2022-11-23T18:18:37.227Z,41.22
2022-11-23T18:20:39.956Z,13.02
2022-11-23T18:22:42.820Z,98.68
2022-11-23T18:24:45.369Z,18.98
2022-11-23T18:26:52.260Z,18.85
2022-11-23T18:28:59.787Z,47.65
2022-11-23T18:31:13.950Z,60.45
2022-11-23T18:33:20.093Z,17.10
2022-11-23T18:35:22.868Z,167.43
2022-11-23T18:37:25.630Z,13.30
2022-11-23T18:39:28.267Z,15.15
2022-11-23T18:41:30.868Z,13.90
2022-11-23T18:43:33.856Z,21.65
2022-11-23T18:45:36.545Z,14.75
2022-11-23T18:47:39.191Z,15.27
2022-11-23T18:49:41.848Z,16.10
2022-11-23T18:51:44.483Z,10.57
2022-11-23T18:53:50.012Z,265.42
2022-11-23T18:55:57.538Z,7.97
2022-11-23T18:58:02.900Z,84.22
2022-11-23T19:00:08.039Z,19.17
2022-11-23T19:02:11.756Z,14.98
2022-11-23T19:04:14.384Z,84.07
2022-11-23T19:06:19.104Z,152.35
2022-11-23T19:08:21.989Z,16.52
2022-11-23T19:10:24.593Z,338.08
2022-11-23T19:12:27.193Z,96.75
2022-11-23T19:14:29.844Z,340.00
2022-11-23T19:16:32.982Z,341.70
2022-11-23T19:18:35.526Z,278.40
2022-11-23T19:20:38.687Z,85.07
2022-11-23T19:22:49.053Z,111.72
2022-11-23T19:24:51.766Z,89.63
2022-11-23T19:26:54.880Z,151.90
2022-11-23T19:28:58.829Z,48.05
2022-11-23T19:31:11.953Z,66.72
2022-11-23T19:33:15.827Z,54.90
2022-11-23T19:35:18.582Z,55.63
2022-11-23T19:37:21.146Z,59.22
2022-11-23T19:39:24.176Z,63.80
2022-11-23T19:41:30.767Z,110.53
2022-11-23T19:43:33.574Z,145.65
2022-11-23T19:45:36.148Z,317.10
2022-11-23T19:47:38.777Z,194.68
2022-11-23T19:49:41.352Z,330.35
2022-11-23T19:51:45.372Z,144.73
2022-11-23T19:53:49.433Z,311.15
2022-11-23T19:55:52.233Z,365.80
2022-11-23T19:57:54.926Z,624.25
2022-11-23T19:59:57.440Z,280.13
2022-11-23T20:02:00.022Z,543.30
2022-11-23T20:04:09.586Z,296.08
2022-11-23T20:06:26.183Z,595.33
2022-11-23T20:08:29.050Z,331.17
2022-11-23T20:10:31.599Z,403.83
2022-11-23T20:12:34.159Z,352.75
2022-11-23T20:14:36.741Z,810.72
2022-11-23T20:16:39.781Z,294.60
2022-11-23T20:18:43.688Z,216.18
2022-11-23T20:20:47.868Z,222.95
2022-11-23T20:22:50.641Z,202.20
2022-11-23T20:24:53.266Z,360.98
2022-11-23T20:26:55.801Z,377.27
2022-11-23T20:28:59.181Z,223.55
2022-11-23T20:31:15.646Z,360.77
2022-11-23T20:33:21.156Z,259.88
2022-11-23T20:35:24.095Z,276.33
2022-11-23T20:37:26.959Z,176.43
2022-11-23T20:39:29.600Z,251.38
2022-11-23T20:41:34.625Z,453.13
2022-11-23T20:43:37.946Z,356.95
2022-11-23T20:45:40.704Z,402.23
2022-11-23T20:47:43.388Z,407.92
2022-11-23T20:49:46.045Z,352.77
2022-11-23T20:51:48.795Z,408.27
2022-11-23T20:53:52.228Z,332.30
2022-11-23T20:56:01.588Z,277.50
2022-11-23T20:58:04.344Z,295.38
2022-11-23T21:00:07.609Z,245.75
2022-11-23T21:02:10.401Z,309.98
2022-11-23T21:04:13.093Z,269.48
2022-11-23T21:06:15.697Z,440.55
2022-11-23T21:08:27.894Z,390.50
2022-11-23T21:10:51.539Z,406.20
2022-11-23T21:13:12.488Z,400.48
2022-11-23T21:15:15.674Z,456.52
2022-11-23T21:17:18.287Z,409.48
2022-11-23T21:19:23.656Z,446.55
2022-11-23T21:21:26.782Z,440.48
2022-11-23T21:23:36.340Z,452.50
2022-11-23T21:25:39.081Z,417.45
2022-11-23T21:27:41.668Z,518.67
2022-11-23T21:29:44.994Z,488.17
2022-11-23T21:31:49.004Z,386.58
2022-11-23T21:33:54.030Z,419.90
2022-11-23T21:36:02.104Z,345.77
2022-11-23T21:38:04.833Z,295.02
2022-11-23T21:40:08.209Z,448.20
2022-11-23T21:42:10.953Z,552.30
2022-11-23T21:44:13.789Z,296.88
2022-11-23T21:46:16.927Z,516.53
2022-11-23T21:48:19.568Z,290.80
2022-11-23T21:50:22.206Z,314.20
2022-11-23T21:52:24.900Z,200.00
2022-11-23T21:54:27.496Z,226.95
2022-11-23T21:56:30.577Z,328.33
2022-11-23T21:58:33.296Z,306.30
2022-11-23T22:00:35.942Z,327.27
2022-11-23T22:02:39.036Z,330.92
2022-11-23T22:04:41.861Z,253.35
2022-11-23T22:06:45.654Z,313.90
2022-11-23T22:08:54.253Z,277.92
2022-11-23T22:10:57.039Z,335.95
2022-11-23T22:12:59.721Z,271.75
2022-11-23T22:15:02.682Z,224.15
2022-11-23T22:17:06.074Z,270.13
2022-11-23T22:19:12.171Z,338.75
2022-11-23T22:21:16.057Z,430.38
2022-11-23T22:23:18.700Z,173.73
2022-11-23T22:25:21.436Z,134.27
2022-11-23T22:27:27.800Z,101.00
2022-11-23T22:29:30.695Z,168.07
2022-11-23T22:31:34.928Z,99.55
2022-11-23T22:33:38.437Z,330.17
2022-11-23T22:35:41.028Z,94.68
2022-11-23T22:37:43.600Z,107.13
2022-11-23T22:39:46.273Z,159.07
2022-11-23T22:41:48.888Z,72.22
2022-11-23T22:43:52.304Z,95.13
2022-11-23T22:45:57.733Z,85.63
2022-11-23T22:48:03.818Z,50.97
2022-11-23T22:50:09.629Z,66.38
2022-11-23T22:52:12.931Z,62.70
2022-11-23T22:54:15.557Z,44.80
2022-11-23T22:56:19.940Z,30.90
2022-11-23T22:58:22.672Z,40.30
2022-11-23T23:00:25.399Z,230.38
2022-11-23T23:02:29.294Z,29.13
2022-11-23T23:04:32.409Z,244.13
2022-11-23T23:06:36.095Z,63.33
2022-11-23T23:08:38.767Z,47.38
2022-11-23T23:10:41.499Z,24.85
2022-11-23T23:12:44.177Z,103.57
2022-11-23T23:14:46.927Z,16.83
2022-11-23T23:16:49.879Z,76.35
2022-11-23T23:18:55.405Z,19.35
2022-11-23T23:21:11.022Z,51.33
2022-11-23T23:23:14.160Z,13.95
2022-11-23T23:25:16.933Z,122.63
2022-11-23T23:27:19.646Z,14.45
2022-11-23T23:29:22.991Z,11.40
2022-11-23T23:31:27.262Z,16.55
2022-11-23T23:33:32.473Z,13.57
2022-11-23T23:35:36.131Z,13.43
2022-11-23T23:37:38.765Z,14.38
2022-11-23T23:39:41.410Z,13.68
2022-11-23T23:41:44.180Z,10.55
2022-11-23T23:43:48.421Z,12.07
2022-11-23T23:45:51.638Z,12.55
2022-11-23T23:47:54.607Z,9.80
2022-11-23T23:49:57.339Z,12.98
2022-11-23T23:52:00.062Z,13.05
2022-11-23T23:54:02.793Z,23.00
2022-11-23T23:56:08.068Z,78.55
2022-11-23T23:58:10.793Z,18.92
